sensor_id;sensor_type;location;lat;lon;timestamp;pressure;altitude;pressure_sealevel;temperature;humidity
36138;BME280;22194;50.046;21.954;2022-12-07T00:01:47;98428.72;;;2.15;78.04
36138;BME280;22194;50.046;21.954;2022-12-07T00:04:18;98425.39;;;2.16;78.07
36138;BME280;22194;50.046;21.954;2022-12-07T00:06:52;98427.39;;;2.18;77.92
36138;BME280;22194;50.046;21.954;2022-12-07T00:09:20;98421.63;;;2.17;78.18
36138;BME280;22194;50.046;21.954;2022-12-07T00:11:51;98425.61;;;2.18;77.82
36138;BME280;22194;50.046;21.954;2022-12-07T00:14:22;98425.95;;;2.19;78.04
36138;BME280;22194;50.046;21.954;2022-12-07T00:16:52;98426.24;;;2.19;77.75
36138;BME280;22194;50.046;21.954;2022-12-07T00:19:20;98429.59;;;2.19;77.96
36138;BME280;22194;50.046;21.954;2022-12-07T00:21:48;98428.91;;;2.19;78.22
36138;BME280;22194;50.046;21.954;2022-12-07T00:24:19;98436.45;;;2.18;78.27
36138;BME280;22194;50.046;21.954;2022-12-07T00:26:47;98439.02;;;2.19;78.08
36138;BME280;22194;50.046;21.954;2022-12-07T00:29:19;98437.95;;;2.20;78.00
36138;BME280;22194;50.046;21.954;2022-12-07T00:31:49;98438.69;;;2.19;77.94
36138;BME280;22194;50.046;21.954;2022-12-07T00:34:20;98441.10;;;2.19;78.03
36138;BME280;22194;50.046;21.954;2022-12-07T00:36:50;98440.22;;;2.20;77.99
36138;BME280;22194;50.046;21.954;2022-12-07T00:39:20;98441.06;;;2.21;78.11
36138;BME280;22194;50.046;21.954;2022-12-07T00:41:48;98445.55;;;2.22;78.00
36138;BME280;22194;50.046;21.954;2022-12-07T00:44:16;98445.96;;;2.24;78.14
36138;BME280;22194;50.046;21.954;2022-12-07T00:46:44;98447.46;;;2.26;77.93
36138;BME280;22194;50.046;21.954;2022-12-07T00:49:15;98444.21;;;2.28;78.13
36138;BME280;22194;50.046;21.954;2022-12-07T00:51:43;98442.54;;;2.30;78.21
36138;BME280;22194;50.046;21.954;2022-12-07T00:54:12;98444.02;;;2.32;78.03
36138;BME280;22194;50.046;21.954;2022-12-07T00:56:42;98445.02;;;2.33;77.92
36138;BME280;22194;50.046;21.954;2022-12-07T00:59:13;98445.28;;;2.35;78.21
36138;BME280;22194;50.046;21.954;2022-12-07T01:01:44;98442.48;;;2.34;78.27
36138;BME280;22194;50.046;21.954;2022-12-07T01:04:13;98442.91;;;2.37;77.89
36138;BME280;22194;50.046;21.954;2022-12-07T01:06:41;98441.28;;;2.38;77.94
36138;BME280;22194;50.046;21.954;2022-12-07T01:09:09;98438.41;;;2.39;78.12
36138;BME280;22194;50.046;21.954;2022-12-07T01:11:39;98435.39;;;2.40;78.16
36138;BME280;22194;50.046;21.954;2022-12-07T01:14:08;98435.48;;;2.42;77.97
36138;BME280;22194;50.046;21.954;2022-12-07T01:16:39;98435.10;;;2.43;77.92
36138;BME280;22194;50.046;21.954;2022-12-07T01:19:08;98429.65;;;2.43;78.05
36138;BME280;22194;50.046;21.954;2022-12-07T01:21:39;98428.50;;;2.45;77.96
36138;BME280;22194;50.046;21.954;2022-12-07T01:24:10;98423.53;;;2.46;78.10
36138;BME280;22194;50.046;21.954;2022-12-07T01:26:38;98423.07;;;2.48;78.25
36138;BME280;22194;50.046;21.954;2022-12-07T01:29:06;98424.91;;;2.50;78.16
36138;BME280;22194;50.046;21.954;2022-12-07T01:31:34;98420.96;;;2.52;78.16
36138;BME280;22194;50.046;21.954;2022-12-07T01:34:04;98423.58;;;2.53;78.16
36138;BME280;22194;50.046;21.954;2022-12-07T01:36:35;98426.15;;;2.50;77.93
36138;BME280;22194;50.046;21.954;2022-12-07T01:39:06;98422.11;;;2.50;78.05
36138;BME280;22194;50.046;21.954;2022-12-07T01:41:38;98420.64;;;2.48;78.07
36138;BME280;22194;50.046;21.954;2022-12-07T01:44:25;98424.71;;;2.47;77.89
36138;BME280;22194;50.046;21.954;2022-12-07T01:46:56;98425.76;;;2.47;77.98
36138;BME280;22194;50.046;21.954;2022-12-07T01:52:10;98425.80;;;2.50;78.07
36138;BME280;22194;50.046;21.954;2022-12-07T01:54:45;98428.77;;;2.50;78.10
36138;BME280;22194;50.046;21.954;2022-12-07T01:57:17;98424.04;;;2.51;78.07
36138;BME280;22194;50.046;21.954;2022-12-07T01:59:49;98426.29;;;2.51;77.89
36138;BME280;22194;50.046;21.954;2022-12-07T02:02:27;98425.96;;;2.50;78.19
36138;BME280;22194;50.046;21.954;2022-12-07T02:05:02;98428.52;;;2.48;78.06
36138;BME280;22194;50.046;21.954;2022-12-07T02:07:36;98423.55;;;2.46;78.06
36138;BME280;22194;50.046;21.954;2022-12-07T02:10:24;98422.69;;;2.46;78.02
36138;BME280;22194;50.046;21.954;2022-12-07T02:13:16;98428.11;;;2.46;78.03
36138;BME280;22194;50.046;21.954;2022-12-07T02:16:10;98426.98;;;2.44;77.92
36138;BME280;22194;50.046;21.954;2022-12-07T02:21:48;98428.47;;;2.42;77.95
36138;BME280;22194;50.046;21.954;2022-12-07T02:28:07;98432.16;;;2.42;78.00
36138;BME280;22194;50.046;21.954;2022-12-07T02:30:12;98425.18;;;2.42;77.98
36138;BME280;22194;50.046;21.954;2022-12-07T02:35:39;98429.70;;;2.38;78.17
36138;BME280;22194;50.046;21.954;2022-12-07T02:41:02;98428.95;;;2.32;78.17
36138;BME280;22194;50.046;21.954;2022-12-07T02:43:47;98424.71;;;2.33;77.94
36138;BME280;22194;50.046;21.954;2022-12-07T02:46:24;98424.58;;;2.32;77.92
36138;BME280;22194;50.046;21.954;2022-12-07T02:48:58;98419.61;;;2.30;78.02
36138;BME280;22194;50.046;21.954;2022-12-07T02:51:34;98419.29;;;2.26;77.93
36138;BME280;22194;50.046;21.954;2022-12-07T02:54:18;98419.93;;;2.24;78.34
36138;BME280;22194;50.046;21.954;2022-12-07T02:57:01;98420.55;;;2.21;78.17
36138;BME280;22194;50.046;21.954;2022-12-07T03:02:53;98426.20;;;2.17;78.26
36138;BME280;22194;50.046;21.954;2022-12-07T03:16:33;98421.31;;;2.09;78.36
36138;BME280;22194;50.046;21.954;2022-12-07T03:19:10;98420.64;;;2.09;78.52
36138;BME280;22194;50.046;21.954;2022-12-07T03:21:55;98418.23;;;2.08;78.22
36138;BME280;22194;50.046;21.954;2022-12-07T03:24:33;98409.97;;;2.09;78.39
36138;BME280;22194;50.046;21.954;2022-12-07T03:27:08;98408.19;;;2.10;78.32
36138;BME280;22194;50.046;21.954;2022-12-07T03:29:58;98408.62;;;2.12;78.40
36138;BME280;22194;50.046;21.954;2022-12-07T03:32:41;98407.31;;;2.13;78.42
36138;BME280;22194;50.046;21.954;2022-12-07T03:35:27;98406.16;;;2.15;78.46
36138;BME280;22194;50.046;21.954;2022-12-07T03:43:20;98398.25;;;2.23;78.35
36138;BME280;22194;50.046;21.954;2022-12-07T03:48:42;98396.90;;;2.26;78.55
36138;BME280;22194;50.046;21.954;2022-12-07T03:51:28;98392.31;;;2.27;78.52
36138;BME280;22194;50.046;21.954;2022-12-07T03:54:25;98392.08;;;2.28;78.35
36138;BME280;22194;50.046;21.954;2022-12-07T03:56:57;98387.40;;;2.30;78.41
36138;BME280;22194;50.046;21.954;2022-12-07T03:59:27;98380.17;;;2.32;78.37
36138;BME280;22194;50.046;21.954;2022-12-07T04:02:01;98375.65;;;2.31;78.31
36138;BME280;22194;50.046;21.954;2022-12-07T04:04:34;98375.06;;;2.32;78.23
36138;BME280;22194;50.046;21.954;2022-12-07T04:07:02;98374.30;;;2.33;78.03
36138;BME280;22194;50.046;21.954;2022-12-07T04:09:31;98376.17;;;2.34;78.23
36138;BME280;22194;50.046;21.954;2022-12-07T04:11:59;98377.71;;;2.35;78.23
36138;BME280;22194;50.046;21.954;2022-12-07T04:14:30;98378.67;;;2.37;78.23
36138;BME280;22194;50.046;21.954;2022-12-07T04:16:59;98380.20;;;2.38;78.30
36138;BME280;22194;50.046;21.954;2022-12-07T04:19:31;98379.02;;;2.41;78.47
36138;BME280;22194;50.046;21.954;2022-12-07T04:22:01;98381.80;;;2.41;78.12
36138;BME280;22194;50.046;21.954;2022-12-07T04:24:31;98379.79;;;2.43;78.26
36138;BME280;22194;50.046;21.954;2022-12-07T04:27:00;98373.90;;;2.45;78.22
36138;BME280;22194;50.046;21.954;2022-12-07T04:29:30;98377.84;;;2.47;78.26
36138;BME280;22194;50.046;21.954;2022-12-07T04:31:59;98373.08;;;2.48;78.30
36138;BME280;22194;50.046;21.954;2022-12-07T04:34:27;98371.64;;;2.48;78.22
36138;BME280;22194;50.046;21.954;2022-12-07T04:36:56;98370.02;;;2.49;78.09
36138;BME280;22194;50.046;21.954;2022-12-07T04:39:29;98366.91;;;2.48;78.20
36138;BME280;22194;50.046;21.954;2022-12-07T04:41:59;98369.36;;;2.48;78.18
36138;BME280;22194;50.046;21.954;2022-12-07T04:44:29;98371.69;;;2.50;78.43
36138;BME280;22194;50.046;21.954;2022-12-07T04:46:58;98371.09;;;2.52;78.33
36138;BME280;22194;50.046;21.954;2022-12-07T04:49:29;98368.75;;;2.54;78.28
36138;BME280;22194;50.046;21.954;2022-12-07T04:51:57;98367.02;;;2.53;78.40
36138;BME280;22194;50.046;21.954;2022-12-07T04:54:24;98365.73;;;2.54;78.54
36138;BME280;22194;50.046;21.954;2022-12-07T04:56:52;98364.27;;;2.56;78.33
36138;BME280;22194;50.046;21.954;2022-12-07T04:59:20;98364.58;;;2.57;78.44
36138;BME280;22194;50.046;21.954;2022-12-07T05:01:48;98362.40;;;2.58;78.34
36138;BME280;22194;50.046;21.954;2022-12-07T05:04:18;98360.13;;;2.58;78.13
36138;BME280;22194;50.046;21.954;2022-12-07T05:06:47;98356.64;;;2.58;78.11
36138;BME280;22194;50.046;21.954;2022-12-07T05:09:15;98361.16;;;2.58;78.26
36138;BME280;22194;50.046;21.954;2022-12-07T05:11:43;98356.80;;;2.58;78.33
36138;BME280;22194;50.046;21.954;2022-12-07T05:14:16;98353.66;;;2.58;78.22
36138;BME280;22194;50.046;21.954;2022-12-07T05:16:49;98349.14;;;2.57;78.42
36138;BME280;22194;50.046;21.954;2022-12-07T05:19:20;98349.40;;;2.56;78.26
36138;BME280;22194;50.046;21.954;2022-12-07T05:21:48;98351.46;;;2.56;78.16
36138;BME280;22194;50.046;21.954;2022-12-07T05:24:18;98354.66;;;2.55;78.32
36138;BME280;22194;50.046;21.954;2022-12-07T05:26:48;98358.66;;;2.52;78.15
36138;BME280;22194;50.046;21.954;2022-12-07T05:29:17;98357.50;;;2.51;78.33
36138;BME280;22194;50.046;21.954;2022-12-07T05:31:46;98353.23;;;2.49;78.18
36138;BME280;22194;50.046;21.954;2022-12-07T05:34:14;98349.74;;;2.49;78.15
36138;BME280;22194;50.046;21.954;2022-12-07T05:36:42;98353.23;;;2.49;78.06
36138;BME280;22194;50.046;21.954;2022-12-07T05:39:10;98351.99;;;2.49;78.33
36138;BME280;22194;50.046;21.954;2022-12-07T05:41:39;98351.47;;;2.49;78.21
36138;BME280;22194;50.046;21.954;2022-12-07T05:44:40;98357.58;;;2.49;78.49
36138;BME280;22194;50.046;21.954;2022-12-07T05:47:10;98360.72;;;2.50;78.12
36138;BME280;22194;50.046;21.954;2022-12-07T05:49:39;98359.92;;;2.48;78.31
36138;BME280;22194;50.046;21.954;2022-12-07T05:52:07;98359.72;;;2.48;78.55
36138;BME280;22194;50.046;21.954;2022-12-07T05:54:35;98358.67;;;2.48;78.58
36138;BME280;22194;50.046;21.954;2022-12-07T05:57:04;98357.48;;;2.48;78.54
36138;BME280;22194;50.046;21.954;2022-12-07T05:59:32;98357.16;;;2.47;78.38
36138;BME280;22194;50.046;21.954;2022-12-07T06:02:05;98357.37;;;2.47;78.19
36138;BME280;22194;50.046;21.954;2022-12-07T06:04:37;98354.65;;;2.45;78.09
36138;BME280;22194;50.046;21.954;2022-12-07T06:07:06;98351.50;;;2.45;78.31
36138;BME280;22194;50.046;21.954;2022-12-07T06:09:36;98354.48;;;2.45;78.21
36138;BME280;22194;50.046;21.954;2022-12-07T06:12:05;98353.43;;;2.45;78.50
36138;BME280;22194;50.046;21.954;2022-12-07T06:14:55;98351.77;;;2.43;78.41
36138;BME280;22194;50.046;21.954;2022-12-07T06:17:24;98350.56;;;2.43;78.29
36138;BME280;22194;50.046;21.954;2022-12-07T06:19:52;98351.30;;;2.42;78.30
36138;BME280;22194;50.046;21.954;2022-12-07T06:22:20;98352.39;;;2.41;78.41
36138;BME280;22194;50.046;21.954;2022-12-07T06:24:48;98352.56;;;2.42;78.40
36138;BME280;22194;50.046;21.954;2022-12-07T06:27:16;98348.61;;;2.40;78.31
36138;BME280;22194;50.046;21.954;2022-12-07T06:29:44;98346.19;;;2.39;78.25
36138;BME280;22194;50.046;21.954;2022-12-07T06:32:12;98348.71;;;2.38;78.21
36138;BME280;22194;50.046;21.954;2022-12-07T06:34:40;98346.92;;;2.36;78.21
36138;BME280;22194;50.046;21.954;2022-12-07T06:37:08;98348.99;;;2.32;78.37
36138;BME280;22194;50.046;21.954;2022-12-07T06:39:36;98349.98;;;2.30;78.38
36138;BME280;22194;50.046;21.954;2022-12-07T06:42:04;98352.25;;;2.30;78.28
36138;BME280;22194;50.046;21.954;2022-12-07T06:44:32;98349.81;;;2.30;78.40
36138;BME280;22194;50.046;21.954;2022-12-07T06:47:01;98349.54;;;2.28;78.34
36138;BME280;22194;50.046;21.954;2022-12-07T06:49:52;98348.64;;;2.29;78.58
36138;BME280;22194;50.046;21.954;2022-12-07T06:52:21;98349.48;;;2.29;78.34
36138;BME280;22194;50.046;21.954;2022-12-07T06:54:50;98353.77;;;2.27;78.28
36138;BME280;22194;50.046;21.954;2022-12-07T06:57:18;98355.71;;;2.27;78.42
36138;BME280;22194;50.046;21.954;2022-12-07T06:59:48;98361.61;;;2.28;78.79
36138;BME280;22194;50.046;21.954;2022-12-07T07:02:16;98360.88;;;2.29;78.25
36138;BME280;22194;50.046;21.954;2022-12-07T07:04:47;98359.52;;;2.28;78.54
36138;BME280;22194;50.046;21.954;2022-12-07T07:07:15;98369.97;;;2.29;78.29
36138;BME280;22194;50.046;21.954;2022-12-07T07:09:44;98367.02;;;2.29;78.35
36138;BME280;22194;50.046;21.954;2022-12-07T07:12:12;98368.97;;;2.28;78.65
36138;BME280;22194;50.046;21.954;2022-12-07T07:14:40;98369.27;;;2.29;78.51
36138;BME280;22194;50.046;21.954;2022-12-07T07:17:08;98370.50;;;2.29;78.38
36138;BME280;22194;50.046;21.954;2022-12-07T07:19:37;98370.00;;;2.29;78.44
36138;BME280;22194;50.046;21.954;2022-12-07T07:22:06;98370.58;;;2.28;78.33
36138;BME280;22194;50.046;21.954;2022-12-07T07:24:34;98376.58;;;2.26;78.35
36138;BME280;22194;50.046;21.954;2022-12-07T07:27:02;98379.49;;;2.24;78.07
36138;BME280;22194;50.046;21.954;2022-12-07T07:29:30;98378.83;;;2.23;78.17
36138;BME280;22194;50.046;21.954;2022-12-07T07:32:00;98372.02;;;2.23;78.27
36138;BME280;22194;50.046;21.954;2022-12-07T07:34:34;98365.55;;;2.23;78.26
36138;BME280;22194;50.046;21.954;2022-12-07T07:37:04;98365.38;;;2.23;78.49
36138;BME280;22194;50.046;21.954;2022-12-07T07:39:32;98369.40;;;2.23;78.38
36138;BME280;22194;50.046;21.954;2022-12-07T07:42:00;98366.85;;;2.25;78.30
36138;BME280;22194;50.046;21.954;2022-12-07T07:44:28;98369.71;;;2.27;78.33
36138;BME280;22194;50.046;21.954;2022-12-07T07:47:03;98370.74;;;2.27;78.24
36138;BME280;22194;50.046;21.954;2022-12-07T07:49:33;98373.61;;;2.26;78.46
36138;BME280;22194;50.046;21.954;2022-12-07T07:52:01;98371.65;;;2.27;78.29
36138;BME280;22194;50.046;21.954;2022-12-07T07:54:29;98369.69;;;2.28;78.36
36138;BME280;22194;50.046;21.954;2022-12-07T07:56:58;98372.81;;;2.29;78.18
36138;BME280;22194;50.046;21.954;2022-12-07T07:59:26;98372.23;;;2.29;78.56
36138;BME280;22194;50.046;21.954;2022-12-07T08:01:55;98370.29;;;2.30;78.44
36138;BME280;22194;50.046;21.954;2022-12-07T08:04:24;98369.61;;;2.29;78.58
36138;BME280;22194;50.046;21.954;2022-12-07T08:06:53;98373.73;;;2.31;78.79
36138;BME280;22194;50.046;21.954;2022-12-07T08:09:22;98379.08;;;2.32;78.83
36138;BME280;22194;50.046;21.954;2022-12-07T08:11:50;98384.77;;;2.34;78.58
36138;BME280;22194;50.046;21.954;2022-12-07T08:14:18;98387.48;;;2.32;78.68
36138;BME280;22194;50.046;21.954;2022-12-07T08:16:46;98382.42;;;2.32;78.32
36138;BME280;22194;50.046;21.954;2022-12-07T08:19:14;98384.66;;;2.33;78.62
36138;BME280;22194;50.046;21.954;2022-12-07T08:21:43;98389.38;;;2.33;78.45
36138;BME280;22194;50.046;21.954;2022-12-07T08:24:11;98391.80;;;2.33;78.33
36138;BME280;22194;50.046;21.954;2022-12-07T08:26:39;98396.98;;;2.35;78.48
36138;BME280;22194;50.046;21.954;2022-12-07T08:29:10;98398.02;;;2.35;78.56
36138;BME280;22194;50.046;21.954;2022-12-07T08:31:38;98394.52;;;2.35;78.49
36138;BME280;22194;50.046;21.954;2022-12-07T08:34:06;98396.19;;;2.37;78.39
36138;BME280;22194;50.046;21.954;2022-12-07T08:36:37;98396.48;;;2.38;78.52
36138;BME280;22194;50.046;21.954;2022-12-07T08:39:04;98396.47;;;2.38;78.58
36138;BME280;22194;50.046;21.954;2022-12-07T08:41:54;98398.83;;;2.36;78.71
36138;BME280;22194;50.046;21.954;2022-12-07T08:44:22;98398.15;;;2.36;78.32
36138;BME280;22194;50.046;21.954;2022-12-07T08:46:55;98398.89;;;2.35;78.38
36138;BME280;22194;50.046;21.954;2022-12-07T08:49:35;98402.00;;;2.36;78.68
36138;BME280;22194;50.046;21.954;2022-12-07T08:52:06;98402.74;;;2.39;78.68
36138;BME280;22194;50.046;21.954;2022-12-07T08:54:38;98404.61;;;2.40;78.52
36138;BME280;22194;50.046;21.954;2022-12-07T08:57:07;98401.23;;;2.41;78.51
36138;BME280;22194;50.046;21.954;2022-12-07T08:59:37;98397.39;;;2.41;78.25
36138;BME280;22194;50.046;21.954;2022-12-07T09:02:06;98398.55;;;2.42;78.48
36138;BME280;22194;50.046;21.954;2022-12-07T09:04:37;98397.30;;;2.43;78.52
36138;BME280;22194;50.046;21.954;2022-12-07T09:07:05;98397.27;;;2.43;78.28
36138;BME280;22194;50.046;21.954;2022-12-07T09:09:36;98396.33;;;2.44;78.44
36138;BME280;22194;50.046;21.954;2022-12-07T09:12:04;98393.25;;;2.46;78.31
36138;BME280;22194;50.046;21.954;2022-12-07T09:14:32;98391.76;;;2.48;78.62
36138;BME280;22194;50.046;21.954;2022-12-07T09:17:11;98391.71;;;2.49;78.61
36138;BME280;22194;50.046;21.954;2022-12-07T09:19:39;98392.66;;;2.51;78.58
36138;BME280;22194;50.046;21.954;2022-12-07T09:22:10;98395.38;;;2.53;78.67
36138;BME280;22194;50.046;21.954;2022-12-07T09:24:39;98395.56;;;2.52;78.68
36138;BME280;22194;50.046;21.954;2022-12-07T09:27:07;98392.55;;;2.53;78.50
36138;BME280;22194;50.046;21.954;2022-12-07T09:29:37;98392.40;;;2.53;78.66
36138;BME280;22194;50.046;21.954;2022-12-07T09:32:05;98392.51;;;2.51;78.68
36138;BME280;22194;50.046;21.954;2022-12-07T09:34:38;98388.19;;;2.50;78.48
36138;BME280;22194;50.046;21.954;2022-12-07T09:37:07;98389.23;;;2.50;78.47
36138;BME280;22194;50.046;21.954;2022-12-07T09:39:40;98386.65;;;2.49;78.51
36138;BME280;22194;50.046;21.954;2022-12-07T09:44:52;98383.33;;;2.49;78.73
36138;BME280;22194;50.046;21.954;2022-12-07T09:47:22;98381.38;;;2.49;78.49
36138;BME280;22194;50.046;21.954;2022-12-07T09:49:52;98378.83;;;2.51;78.49
36138;BME280;22194;50.046;21.954;2022-12-07T09:52:27;98381.16;;;2.54;78.62
36138;BME280;22194;50.046;21.954;2022-12-07T09:55:26;98379.36;;;2.55;78.57
36138;BME280;22194;50.046;21.954;2022-12-07T09:57:58;98379.98;;;2.53;78.38
36138;BME280;22194;50.046;21.954;2022-12-07T10:00:26;98375.20;;;2.50;78.64
36138;BME280;22194;50.046;21.954;2022-12-07T10:05:32;98379.48;;;2.45;78.60
36138;BME280;22194;50.046;21.954;2022-12-07T10:08:04;98378.92;;;2.43;78.32
36138;BME280;22194;50.046;21.954;2022-12-07T10:10:35;98375.96;;;2.39;78.51
36138;BME280;22194;50.046;21.954;2022-12-07T10:13:09;98378.50;;;2.37;78.34
36138;BME280;22194;50.046;21.954;2022-12-07T10:15:56;98377.98;;;2.37;78.39
36138;BME280;22194;50.046;21.954;2022-12-07T10:18:37;98373.09;;;2.37;78.83
36138;BME280;22194;50.046;21.954;2022-12-07T10:26:34;98373.15;;;2.43;78.70
36138;BME280;22194;50.046;21.954;2022-12-07T10:29:18;98374.23;;;2.46;78.55
36138;BME280;22194;50.046;21.954;2022-12-07T10:32:00;98373.07;;;2.48;78.42
36138;BME280;22194;50.046;21.954;2022-12-07T10:34:33;98375.34;;;2.48;78.55
36138;BME280;22194;50.046;21.954;2022-12-07T10:39:54;98373.86;;;2.49;78.62
36138;BME280;22194;50.046;21.954;2022-12-07T10:42:30;98374.31;;;2.50;78.77
36138;BME280;22194;50.046;21.954;2022-12-07T10:45:15;98371.51;;;2.51;78.80
36138;BME280;22194;50.046;21.954;2022-12-07T10:48:17;98375.63;;;2.52;78.67
36138;BME280;22194;50.046;21.954;2022-12-07T10:53:58;98374.94;;;2.52;78.61
36138;BME280;22194;50.046;21.954;2022-12-07T11:11:26;98377.94;;;2.65;78.83
36138;BME280;22194;50.046;21.954;2022-12-07T11:14:48;98372.66;;;2.69;78.84
36138;BME280;22194;50.046;21.954;2022-12-07T11:17:45;98371.34;;;2.72;78.56
36138;BME280;22194;50.046;21.954;2022-12-07T11:20:37;98368.20;;;2.75;78.83
36138;BME280;22194;50.046;21.954;2022-12-07T11:32:56;98358.17;;;2.86;78.84
36138;BME280;22194;50.046;21.954;2022-12-07T11:38:21;98362.67;;;2.87;78.73
36138;BME280;22194;50.046;21.954;2022-12-07T11:41:01;98367.08;;;2.86;78.87
36138;BME280;22194;50.046;21.954;2022-12-07T11:46:39;98366.67;;;2.87;79.14
36138;BME280;22194;50.046;21.954;2022-12-07T11:51:54;98369.50;;;2.87;78.86
36138;BME280;22194;50.046;21.954;2022-12-07T11:54:32;98369.73;;;2.89;79.06
36138;BME280;22194;50.046;21.954;2022-12-07T11:57:10;98369.71;;;2.89;78.78
36138;BME280;22194;50.046;21.954;2022-12-07T11:59:56;98366.05;;;2.89;78.86
36138;BME280;22194;50.046;21.954;2022-12-07T12:05:23;98365.45;;;2.87;78.81
36138;BME280;22194;50.046;21.954;2022-12-07T12:22:37;98360.92;;;2.90;78.71
36138;BME280;22194;50.046;21.954;2022-12-07T12:27:58;98365.70;;;2.89;78.61
36138;BME280;22194;50.046;21.954;2022-12-07T12:30:34;98358.38;;;2.85;78.67
36138;BME280;22194;50.046;21.954;2022-12-07T12:33:28;98358.39;;;2.85;78.76
36138;BME280;22194;50.046;21.954;2022-12-07T12:36:19;98362.40;;;2.86;78.84
36138;BME280;22194;50.046;21.954;2022-12-07T12:51:59;98361.80;;;2.83;78.85
36138;BME280;22194;50.046;21.954;2022-12-07T12:54:35;98364.49;;;2.86;78.84
36138;BME280;22194;50.046;21.954;2022-12-07T12:57:21;98364.17;;;2.88;78.95
36138;BME280;22194;50.046;21.954;2022-12-07T13:02:27;98362.48;;;2.90;78.90
36138;BME280;22194;50.046;21.954;2022-12-07T13:15:40;98366.86;;;2.80;78.39
36138;BME280;22194;50.046;21.954;2022-12-07T13:26:36;98373.25;;;2.79;78.49
36138;BME280;22194;50.046;21.954;2022-12-07T13:31:55;98377.57;;;2.73;78.31
36138;BME280;22194;50.046;21.954;2022-12-07T13:34:37;98376.14;;;2.70;78.66
36138;BME280;22194;50.046;21.954;2022-12-07T13:37:25;98378.41;;;2.70;78.38
36138;BME280;22194;50.046;21.954;2022-12-07T13:40:21;98382.23;;;2.71;78.38
36138;BME280;22194;50.046;21.954;2022-12-07T13:43:03;98375.49;;;2.69;78.44
36138;BME280;22194;50.046;21.954;2022-12-07T13:45:33;98373.77;;;2.68;78.54
36138;BME280;22194;50.046;21.954;2022-12-07T13:48:31;98373.70;;;2.70;78.50
36138;BME280;22194;50.046;21.954;2022-12-07T13:51:05;98378.38;;;2.71;78.33
36138;BME280;22194;50.046;21.954;2022-12-07T13:53:33;98374.77;;;2.73;78.61
36138;BME280;22194;50.046;21.954;2022-12-07T13:56:04;98377.84;;;2.75;78.52
36138;BME280;22194;50.046;21.954;2022-12-07T13:58:34;98375.63;;;2.77;78.67
36138;BME280;22194;50.046;21.954;2022-12-07T14:01:03;98379.59;;;2.78;78.48
36138;BME280;22194;50.046;21.954;2022-12-07T14:03:35;98378.98;;;2.80;78.69
36138;BME280;22194;50.046;21.954;2022-12-07T14:06:22;98381.19;;;2.81;78.40
36138;BME280;22194;50.046;21.954;2022-12-07T14:09:18;98383.58;;;2.82;78.52
36138;BME280;22194;50.046;21.954;2022-12-07T14:11:49;98384.05;;;2.83;78.44
36138;BME280;22194;50.046;21.954;2022-12-07T14:14:27;98384.70;;;2.84;78.54
36138;BME280;22194;50.046;21.954;2022-12-07T14:17:23;98387.48;;;2.85;78.40
36138;BME280;22194;50.046;21.954;2022-12-07T14:20:00;98391.16;;;2.84;78.61
36138;BME280;22194;50.046;21.954;2022-12-07T14:22:37;98384.95;;;2.82;78.55
36138;BME280;22194;50.046;21.954;2022-12-07T14:27:56;98382.40;;;2.81;78.63
36138;BME280;22194;50.046;21.954;2022-12-07T14:30:34;98380.37;;;2.83;78.70
36138;BME280;22194;50.046;21.954;2022-12-07T14:33:07;98382.23;;;2.84;78.63
36138;BME280;22194;50.046;21.954;2022-12-07T14:35:38;98377.02;;;2.83;78.57
36138;BME280;22194;50.046;21.954;2022-12-07T14:38:09;98376.54;;;2.83;78.53
36138;BME280;22194;50.046;21.954;2022-12-07T14:40:39;98373.40;;;2.83;78.49
36138;BME280;22194;50.046;21.954;2022-12-07T14:43:14;98375.31;;;2.83;78.75
36138;BME280;22194;50.046;21.954;2022-12-07T14:45:43;98373.56;;;2.83;78.43
36138;BME280;22194;50.046;21.954;2022-12-07T14:48:14;98379.67;;;2.83;78.56
36138;BME280;22194;50.046;21.954;2022-12-07T14:51:05;98385.08;;;2.84;78.49
36138;BME280;22194;50.046;21.954;2022-12-07T14:53:54;98384.16;;;2.85;78.33
36138;BME280;22194;50.046;21.954;2022-12-07T14:56:26;98381.13;;;2.82;78.38
36138;BME280;22194;50.046;21.954;2022-12-07T14:58:56;98377.39;;;2.80;78.39
36138;BME280;22194;50.046;21.954;2022-12-07T15:01:26;98380.37;;;2.76;78.53
36138;BME280;22194;50.046;21.954;2022-12-07T15:03:55;98380.47;;;2.71;78.49
36138;BME280;22194;50.046;21.954;2022-12-07T15:06:25;98376.73;;;2.68;78.42
36138;BME280;22194;50.046;21.954;2022-12-07T15:08:54;98379.48;;;2.66;78.52
36138;BME280;22194;50.046;21.954;2022-12-07T15:11:24;98377.35;;;2.64;78.33
36138;BME280;22194;50.046;21.954;2022-12-07T15:13:54;98380.62;;;2.61;78.25
36138;BME280;22194;50.046;21.954;2022-12-07T15:16:43;98377.84;;;2.57;78.59
36138;BME280;22194;50.046;21.954;2022-12-07T15:19:32;98380.41;;;2.51;78.51
36138;BME280;22194;50.046;21.954;2022-12-07T15:22:00;98384.64;;;2.47;78.48
36138;BME280;22194;50.046;21.954;2022-12-07T15:24:29;98383.34;;;2.45;78.42
36138;BME280;22194;50.046;21.954;2022-12-07T15:26:57;98386.47;;;2.46;78.48
36138;BME280;22194;50.046;21.954;2022-12-07T15:29:26;98383.75;;;2.44;78.45
36138;BME280;22194;50.046;21.954;2022-12-07T15:31:56;98384.84;;;2.44;78.50
36138;BME280;22194;50.046;21.954;2022-12-07T15:34:28;98383.11;;;2.43;78.38
36138;BME280;22194;50.046;21.954;2022-12-07T15:37:11;98388.84;;;2.40;78.51
36138;BME280;22194;50.046;21.954;2022-12-07T15:39:39;98388.73;;;2.39;78.52
36138;BME280;22194;50.046;21.954;2022-12-07T15:42:07;98393.48;;;2.39;78.58
36138;BME280;22194;50.046;21.954;2022-12-07T15:44:35;98394.71;;;2.38;78.64
36138;BME280;22194;50.046;21.954;2022-12-07T15:47:23;98397.04;;;2.37;78.66
36138;BME280;22194;50.046;21.954;2022-12-07T15:49:51;98400.80;;;2.35;78.43
36138;BME280;22194;50.046;21.954;2022-12-07T15:52:19;98402.05;;;2.35;78.55
36138;BME280;22194;50.046;21.954;2022-12-07T15:54:47;98401.20;;;2.34;78.43
36138;BME280;22194;50.046;21.954;2022-12-07T15:57:16;98405.59;;;2.35;78.65
36138;BME280;22194;50.046;21.954;2022-12-07T15:59:52;98405.16;;;2.36;78.62